Friday, January 19, 2018, 10:32 PM EST
Back to Local

KMTN, Baltimore / Martin

Location: Middle River, MD, United States Lat: 39.333
Local Time: 10:32 PM EST ( 3:32 GMT) Lon: -76.417
Time Zone: US/Eastern Elev: 22 ft

Show me the last for .
Show Coded

Time T Td Feel RH Dir Speed Gust Alt SLP Vis Weather Sky Remarks
2018-01-19 22:24 30 25 - 80 - Calm - 30.05 - 10 CLR None
2018-01-19 21:45 28 23 - 79 - Calm - 30.06 - 10 CLR None
2018-01-19 20:45 30 23 - 74 - Calm - 30.06 - 10 CLR None
2018-01-19 19:45 32 23 - 68 - Calm - 30.07 - 10 CLR None
2018-01-19 18:45 34 23 - 64 - Calm - 30.06 - 10 CLR None
2018-01-19 17:45 39 23 34 51 140° 8 - 30.05 - 10 FEW250 None
2018-01-19 16:45 39 27 34 60 140° 8 - 30.05 - 10 FEW250 None
2018-01-19 15:45 52 19 - 27 140° 7 - 30.05 - 10 FEW250 None
2018-01-19 14:45 52 19 - 27 240° 9 - 30.05 - 10 FEW250 None
2018-01-19 13:45 50 18 46 27 260° 10 - 30.06 - 10 FEW250 None
2018-01-19 12:45 48 19 42 31 250° 12 17 30.08 - 10 FEW250 None
2018-01-19 11:45 45 18 - 33 - Calm - 30.12 - 10 SCT250 None
2018-01-19 10:45 43 19 38 38 270° 8 - 30.15 - 10 SCT150 SCT200 None
2018-01-19 09:45 37 25 - 60 - Calm - 30.15 - 10 SCT150 SCT200 None
2018-01-19 08:45 30 27 - 86 - Calm - 30.14 - 10 SCT200 None
2018-01-19 07:45 21 19 - 92 - Calm - 30.15 - 10 SCT200 None
2018-01-19 06:50 21 19 - 92 - Calm - 30.14 - 10 SCT200 None
2018-01-19 05:45 21 19 - 92 - Calm - 30.12 - 10 CLR None
2018-01-19 05:39 23 19 - 85 - Calm - 30.12 - 10 CLR None
2018-01-19 05:24 23 21 - 92 - Calm - 30.11 - 10 CLR None
2018-01-19 05:03 23 21 - 92 - Calm - 30.12 - 10 CLR None
2018-01-19 04:42 23 21 - 92 - Calm - 30.10 - 10 CLR None
2018-01-19 04:24 23 21 - 92 - Calm - 30.11 - 10 CLR None
2018-01-19 04:03 23 21 - 92 - Calm - 30.11 - 10 CLR None
2018-01-19 03:42 23 21 - 92 - Calm - 30.10 - 10 CLR None
2018-01-19 03:24 23 21 - 92 - Calm - 30.10 - 10 CLR None
2018-01-19 03:03 23 21 - 92 - Calm - 30.11 - 10 CLR None
2018-01-19 02:42 23 19 - 85 - Calm - 30.11 - 10 CLR None
2018-01-19 02:24 23 19 - 85 - Calm - 30.11 - 10 CLR None
2018-01-19 02:03 25 19 - 79 - Calm - 30.11 - 10 CLR None
2018-01-19 01:42 25 19 - 79 - Calm - 30.12 - 10 CLR None
2018-01-19 01:24 23 21 - 92 - Calm - 30.12 - 10 CLR None
2018-01-19 01:03 25 21 - 85 - Calm - 30.12 - 10 CLR None
2018-01-19 00:42 25 23 - 92 - Calm - 30.12 - 10 CLR None
2018-01-19 00:24 25 21 - 85 - Calm - 30.12 - 10 CLR None
2018-01-19 00:03 25 21 - 85 - Calm - 30.14 - 10 CLR None
2018-01-18 23:42 25 19 - 79 - Calm - 30.14 - 10 CLR None
2018-01-18 23:24 27 21 - 79 - Calm - 30.14 - 10 CLR None
2018-01-18 23:03 25 19 - 79 - Calm - 30.14 - 10 CLR None
2018-01-18 22:42 27 18 - 68 - Calm - 30.14 - 10 CLR None

Support USWX by starting your Amazon purchase here.